Time;durP1;ratioP1;P1;durP2;ratioP2;P2;SDS_P1;SDS_P2;PMS_P1;PMS_P2;Temp;Humidity;BMP_temperature;BMP_pressure;BME280_temperature;BME280_humidity;BME280_pressure;Samples;Min_cycle;Max_cycle;Signal;HPM_P1;HPM_P2
2022/05/16 00:00:17;;;;;;;10.40;3.70;;;;;;;12.16;100.00;101750.28;4967017;28;20089;-75
2022/05/16 00:02:42;;;;;;;8.60;3.45;;;;;;;12.03;100.00;101722.28;4977983;28;20030;-75
2022/05/16 00:05:08;;;;;;;10.20;4.30;;;;;;;12.01;100.00;101720.75;4969208;28;20406;-75
2022/05/16 00:07:35;;;;;;;10.23;4.78;;;;;;;12.01;100.00;101726.03;4973261;28;20023;-75
2022/05/16 00:10:00;;;;;;;7.78;5.68;;;;;;;11.97;100.00;101732.56;4985483;28;20049;-75
2022/05/16 00:12:26;;;;;;;5.90;3.30;;;;;;;11.94;100.00;101726.59;4982588;28;20498;-75
2022/05/16 00:14:51;;;;;;;8.88;3.95;;;;;;;11.91;100.00;101724.22;4974874;28;20030;-75
2022/05/16 00:17:17;;;;;;;8.55;3.85;;;;;;;11.93;100.00;101724.94;4973985;28;20037;-76
2022/05/16 00:19:43;;;;;;;6.38;3.45;;;;;;;11.93;100.00;101726.72;4971486;28;20026;-76
2022/05/16 00:22:09;;;;;;;9.10;3.92;;;;;;;11.88;100.00;101724.47;4954982;28;20076;-76
2022/05/16 00:24:38;;;;;;;9.77;4.10;;;;;;;11.86;100.00;101723.75;4964460;28;20033;-76
2022/05/16 00:27:03;;;;;;;9.80;3.40;;;;;;;11.83;100.00;101728.50;4979463;28;20045;-75
2022/05/16 00:29:29;;;;;;;6.32;3.67;;;;;;;11.79;100.00;101727.91;4969585;28;20418;-75
2022/05/16 00:31:55;;;;;;;12.77;3.55;;;;;;;11.81;100.00;101725.16;4984290;28;20615;-75
2022/05/16 00:34:21;;;;;;;7.07;3.30;;;;;;;11.79;99.19;101711.22;4989394;28;20041;-75
2022/05/16 00:36:47;;;;;;;6.13;3.42;;;;;;;11.81;98.32;101714.56;4981306;28;20040;-75
2022/05/16 00:39:17;;;;;;;8.18;2.95;;;;;;;11.80;96.74;101699.66;4978153;28;20109;-75
2022/05/16 00:41:44;;;;;;;7.47;2.67;;;;;;;11.83;96.24;101708.16;4979093;28;20042;-75
2022/05/16 00:44:10;;;;;;;4.90;2.30;;;;;;;11.83;95.04;101689.66;4960581;28;20109;-75
2022/05/16 00:46:35;;;;;;;3.63;1.98;;;;;;;11.86;93.99;101691.19;4974975;28;20482;-75
2022/05/16 00:49:04;;;;;;;4.28;2.45;;;;;;;11.86;92.58;101678.78;4975453;28;20031;-75
2022/05/16 00:51:33;;;;;;;6.15;2.30;;;;;;;12.04;92.09;101684.28;4979580;28;20408;-75
2022/05/16 00:54:32;;;;;;;3.75;2.00;;;;;;;12.10;89.92;101688.16;4966975;28;20037;-75
2022/05/16 00:57:03;;;;;;;9.45;2.85;;;;;;;12.14;89.37;101678.97;4921528;29;20072;-75
2022/05/16 00:59:39;;;;;;;3.05;1.75;;;;;;;12.18;89.51;101684.81;4915698;29;20134;-75
2022/05/16 01:04:48;;;;;;;5.22;2.20;;;;;;;12.15;89.39;101664.78;4921253;29;20054;-76
2022/05/16 01:07:35;;;;;;;5.03;2.00;;;;;;;12.17;89.64;101668.09;4916914;29;20044;-76
2022/05/16 01:10:03;;;;;;;6.50;2.10;;;;;;;12.08;89.61;101661.81;4918912;29;20036;-77
2022/05/16 01:12:32;;;;;;;4.30;1.77;;;;;;;12.15;88.34;101680.66;4900082;29;20480;-77
2022/05/16 01:15:00;;;;;;;3.92;1.63;;;;;;;12.16;88.60;101679.66;4923644;29;20077;-77
2022/05/16 01:17:26;;;;;;;3.67;2.03;;;;;;;12.13;88.91;101677.31;4924924;29;20032;-77
2022/05/16 01:19:51;;;;;;;4.53;2.40;;;;;;;12.08;88.58;101669.75;4925851;29;20036;-77
2022/05/16 01:22:49;;;;;;;3.05;1.60;;;;;;;12.13;88.85;101687.91;4918556;29;20104;-76
2022/05/16 01:25:29;;;;;;;4.80;1.77;;;;;;;11.92;88.15;101643.88;4910830;29;20126;-76
2022/05/16 01:27:57;;;;;;;5.70;2.33;;;;;;;12.01;88.44;101663.38;4924869;29;20051;-76
2022/05/16 01:30:28;;;;;;;2.20;1.45;;;;;;;12.09;87.90;101674.09;4915232;29;20126;-76
2022/05/16 01:32:53;;;;;;;6.47;2.17;;;;;;;12.14;88.24;101678.97;4928461;28;20121;-76
2022/05/16 01:35:24;;;;;;;3.95;1.95;;;;;;;11.99;88.31;101659.19;4967096;28;20374;-77
2022/05/16 01:40:35;;;;;;;4.15;1.65;;;;;;;12.04;87.38;101665.75;4965499;28;20151;-77
2022/05/16 01:43:00;;;;;;;4.68;1.77;;;;;;;12.01;87.42;101667.84;4958844;28;20042;-77
2022/05/16 01:45:26;;;;;;;5.85;1.38;;;;;;;11.98;88.02;101668.13;4944852;28;20038;-77
2022/05/16 01:47:51;;;;;;;2.90;1.33;;;;;;;11.98;87.15;101665.47;4967724;28;20038;-77
2022/05/16 01:50:17;;;;;;;3.33;1.60;;;;;;;11.86;88.15;101649.69;4965065;28;20379;-77
2022/05/16 01:52:42;;;;;;;2.03;1.30;;;;;;;11.93;87.64;101656.16;4971861;28;20474;-77
2022/05/16 01:55:08;;;;;;;2.72;1.30;;;;;;;11.77;87.25;101639.94;4977016;28;20077;-77
2022/05/16 01:57:34;;;;;;;3.03;1.40;;;;;;;11.88;87.01;101652.22;4966330;28;20023;-77
2022/05/16 02:00:00;;;;;;;3.50;1.85;;;;;;;11.80;87.64;101641.47;4962336;28;20039;-77
2022/05/16 02:02:25;;;;;;;3.70;1.75;;;;;;;11.83;88.44;101651.78;4954785;28;20034;-77
2022/05/16 02:04:50;;;;;;;2.60;1.50;;;;;;;11.66;88.04;101632.16;4969862;28;20059;-77
2022/05/16 02:07:16;;;;;;;2.47;1.52;;;;;;;11.57;88.09;101630.34;4961122;28;20438;-77
2022/05/16 02:09:41;;;;;;;5.55;1.60;;;;;;;11.65;88.10;101660.41;4970060;28;20043;-77
2022/05/16 02:12:07;;;;;;;2.92;1.52;;;;;;;11.65;88.22;101662.19;4977586;28;20061;-77
2022/05/16 02:14:33;;;;;;;3.45;1.35;;;;;;;11.65;88.99;101647.19;4962104;28;20062;-77
2022/05/16 02:16:58;;;;;;;4.72;1.42;;;;;;;11.68;88.16;101643.41;4967249;28;20027;-77
2022/05/16 02:19:24;;;;;;;2.80;1.60;;;;;;;11.64;88.49;101629.63;4963521;28;20034;-77
2022/05/16 02:24:39;;;;;;;4.35;1.65;;;;;;;11.59;87.86;101612.53;4974552;28;20119;-76
2022/05/16 02:27:06;;;;;;;4.22;1.77;;;;;;;11.58;88.14;101624.06;4961858;28;20035;-77
2022/05/16 02:29:34;;;;;;;4.30;1.58;;;;;;;11.55;89.07;101617.25;4968283;28;20042;-77
2022/05/16 02:32:00;;;;;;;4.65;2.15;;;;;;;11.53;88.60;101617.38;4986344;28;20045;-77
2022/05/16 02:34:25;;;;;;;3.95;1.50;;;;;;;11.40;88.40;101600.94;4990968;28;20106;-78
2022/05/16 02:36:52;;;;;;;4.80;1.70;;;;;;;11.41;89.11;101602.63;4987284;28;20093;-77
2022/05/16 02:39:18;;;;;;;7.85;1.55;;;;;;;11.46;89.38;101615.44;4972096;28;20026;-77
2022/05/16 02:41:43;;;;;;;2.92;1.52;;;;;;;11.43;88.55;101603.31;4982610;28;20030;-77
2022/05/16 02:44:09;;;;;;;2.53;1.40;;;;;;;11.39;89.08;101591.34;4980196;28;20433;-77
2022/05/16 02:46:35;;;;;;;2.78;1.88;;;;;;;11.50;87.97;101598.31;4986505;28;20030;-77
2022/05/16 02:49:00;;;;;;;8.05;1.95;;;;;;;11.51;88.88;101606.09;4982886;28;20042;-77
2022/05/16 02:51:25;;;;;;;4.43;1.30;;;;;;;11.44;87.81;101583.00;4985709;28;20520;-77
2022/05/16 02:53:51;;;;;;;5.78;1.48;;;;;;;11.62;86.99;101596.38;4936934;28;20395;-77
2022/05/16 02:56:17;;;;;;;3.45;1.25;;;;;;;11.64;87.04;101592.63;4957098;28;20108;-77
2022/05/16 02:58:43;;;;;;;3.83;1.45;;;;;;;11.65;86.50;101578.44;4984198;28;20037;-77
2022/05/16 03:01:12;;;;;;;4.75;1.80;;;;;;;11.66;86.46;101587.19;4978736;28;20030;-78
2022/05/16 03:03:39;;;;;;;4.03;1.60;;;;;;;11.65;85.47;101582.88;4981110;28;20031;-77
2022/05/16 03:06:05;;;;;;;3.25;1.45;;;;;;;11.68;85.74;101590.53;4981296;28;20383;-77
2022/05/16 03:08:30;;;;;;;4.80;1.40;;;;;;;11.62;84.59;101575.22;4989500;28;20027;-77
2022/05/16 03:10:57;;;;;;;3.70;1.33;;;;;;;11.55;85.21;101567.00;4974933;28;20568;-77
2022/05/16 03:13:23;;;;;;;2.88;1.23;;;;;;;11.68;84.51;101582.59;4968968;28;20030;-77
2022/05/16 03:15:49;;;;;;;2.70;1.38;;;;;;;11.62;84.41;101575.22;4964333;28;20019;-77
2022/05/16 03:18:14;;;;;;;5.00;1.10;;;;;;;11.68;84.61;101577.31;4945698;28;20031;-78
2022/05/16 03:20:40;;;;;;;5.88;1.70;;;;;;;11.69;84.24;101584.25;4957150;28;20026;-77
2022/05/16 03:23:05;;;;;;;3.47;1.50;;;;;;;11.68;83.14;101570.22;4970303;28;20038;-77
2022/05/16 03:25:31;;;;;;;3.60;1.50;;;;;;;11.57;83.68;101559.78;4986816;28;20046;-76
2022/05/16 03:27:56;;;;;;;3.88;1.10;;;;;;;11.67;83.54;101570.34;4974262;28;20184;-77
2022/05/16 03:30:21;;;;;;;2.70;1.40;;;;;;;11.67;83.40;101575.63;4986936;28;20128;-77
2022/05/16 03:32:48;;;;;;;4.00;1.50;;;;;;;11.62;82.44;101560.19;4986126;28;20050;-77
2022/05/16 03:35:13;;;;;;;2.97;1.70;;;;;;;11.66;81.95;101573.97;4982852;28;20030;-78
2022/05/16 03:37:38;;;;;;;3.95;1.35;;;;;;;11.58;82.77;101552.69;4990451;28;20038;-77
2022/05/16 03:42:49;;;;;;;4.07;1.42;;;;;;;11.43;82.27;101542.53;4984722;28;20065;-77
2022/05/16 03:45:15;;;;;;;4.75;2.05;;;;;;;11.61;81.81;101576.22;4981330;28;20463;-78
2022/05/16 03:47:40;;;;;;;5.40;1.25;;;;;;;11.56;82.33;101573.13;4988516;28;20148;-77
2022/05/16 03:50:06;;;;;;;2.78;1.45;;;;;;;11.43;82.87;101542.53;4981984;28;20097;-77
2022/05/16 03:52:32;;;;;;;3.53;1.25;;;;;;;11.55;83.01;101567.00;4982112;28;20045;-77
2022/05/16 03:54:58;;;;;;;2.25;1.20;;;;;;;11.48;81.81;101556.16;4982148;28;20034;-77
2022/05/16 03:57:23;;;;;;;5.30;1.85;;;;;;;11.52;82.35;101556.72;4951802;28;20088;-77
2022/05/16 03:59:48;;;;;;;2.83;1.10;;;;;;;11.49;81.60;101557.81;4982508;28;20561;-77
2022/05/16 04:02:14;;;;;;;3.78;1.38;;;;;;;11.53;81.79;101547.81;4979398;28;20129;-77
2022/05/16 04:04:39;;;;;;;2.60;1.00;;;;;;;11.52;81.45;101549.63;4980929;28;20038;-77
2022/05/16 04:07:05;;;;;;;2.33;1.10;;;;;;;11.50;81.70;101546.28;4979909;28;20018;-77
2022/05/16 04:09:30;;;;;;;4.93;1.50;;;;;;;11.53;81.12;101548.63;4968227;28;20474;-77
2022/05/16 04:11:55;;;;;;;2.58;1.33;;;;;;;11.59;82.13;101546.44;4984789;28;20038;-77
2022/05/16 04:14:21;;;;;;;2.38;1.60;;;;;;;11.59;81.62;101530.56;4986919;28;20053;-77
2022/05/16 04:16:47;;;;;;;5.90;1.80;;;;;;;11.62;80.95;101540.84;4962657;28;20141;-77
2022/05/16 04:19:12;;;;;;;5.07;1.58;;;;;;;11.59;81.10;101531.41;4970477;28;20113;-76
2022/05/16 04:21:38;;;;;;;8.73;1.40;;;;;;;11.64;81.64;101534.44;4975256;28;20474;-77
2022/05/16 04:24:05;;;;;;;4.03;1.50;;;;;;;11.73;81.11;101538.88;4984556;28;20388;-76
2022/05/16 04:26:31;;;;;;;3.25;1.55;;;;;;;11.79;81.71;101550.72;4981023;28;20022;-77
2022/05/16 04:28:57;;;;;;;2.55;1.48;;;;;;;11.68;81.30;101527.91;4980147;28;20034;-77
2022/05/16 04:31:23;;;;;;;1.55;1.25;;;;;;;11.88;80.57;101552.56;4960441;28;20051;-77
2022/05/16 04:33:48;;;;;;;2.40;2.10;;;;;;;11.91;80.32;101549.63;4965100;28;20022;-77
2022/05/16 04:36:14;;;;;;;5.70;1.80;;;;;;;11.86;81.04;101532.47;4964948;28;20027;-77
2022/05/16 04:38:39;;;;;;;7.63;1.42;;;;;;;11.94;80.57;101546.69;4963623;28;20026;-77
2022/05/16 04:43:50;;;;;;;1.73;1.20;;;;;;;11.99;80.51;101538.34;4965285;28;20047;-77
2022/05/16 04:46:15;;;;;;;4.50;1.60;;;;;;;12.02;81.69;101546.00;4974071;28;20035;-78
2022/05/16 04:48:41;;;;;;;4.72;1.25;;;;;;;12.04;80.44;101529.97;4965178;28;20118;-77
2022/05/16 04:51:06;;;;;;;3.45;1.40;;;;;;;12.22;80.84;101532.72;4943489;28;20039;-77
2022/05/16 04:53:32;;;;;;;2.83;1.52;;;;;;;12.20;79.96;101521.44;4964889;28;20022;-76
2022/05/16 04:55:58;;;;;;;3.55;1.48;;;;;;;12.37;80.02;101544.53;4965446;28;20050;-76
2022/05/16 04:58:24;;;;;;;3.80;1.42;;;;;;;12.43;80.31;101548.38;4961186;28;20035;-76
2022/05/16 05:00:49;;;;;;;3.08;1.52;;;;;;;12.51;79.27;101541.38;4958085;28;20031;-76
2022/05/16 05:03:15;;;;;;;4.05;1.67;;;;;;;12.58;79.37;101544.28;4959509;28;20601;-76
2022/05/16 05:05:40;;;;;;;4.78;1.70;;;;;;;12.66;78.25;101539.09;4961141;28;20509;-76
2022/05/16 05:08:06;;;;;;;4.95;1.42;;;;;;;12.61;78.10;101522.81;4964950;28;20051;-76
2022/05/16 05:16:15;;;;;;;5.25;1.30;;;;;;;12.82;77.85;101534.97;4959189;28;20140;-71
2022/05/16 05:18:41;;;;;;;4.65;1.35;;;;;;;13.11;77.14;101543.59;4957788;28;20574;-71
2022/05/16 05:21:07;;;;;;;4.60;1.23;;;;;;;13.22;77.04;101554.94;4958770;28;20039;-71
2022/05/16 05:23:34;;;;;;;4.80;1.50;;;;;;;13.27;76.53;101539.44;4959936;28;20066;-71
2022/05/16 05:26:00;;;;;;;5.07;1.65;;;;;;;13.43;76.59;101550.22;4956021;28;20533;-72
2022/05/16 05:28:26;;;;;;;2.80;1.50;;;;;;;13.56;75.54;101548.00;4965016;28;20502;-72
2022/05/16 05:30:51;;;;;;;5.78;1.52;;;;;;;13.63;75.88;101544.75;4975518;28;20046;-71
2022/05/16 05:33:17;;;;;;;5.15;2.17;;;;;;;13.48;75.83;101532.06;4978063;28;20085;-71
2022/05/16 05:35:42;;;;;;;3.20;1.35;;;;;;;13.61;75.38;101547.56;4979337;28;20389;-72
2022/05/16 05:38:09;;;;;;;2.72;1.52;;;;;;;13.60;75.82;101547.72;4975058;28;20031;-72
2022/05/16 05:40:34;;;;;;;6.68;2.38;;;;;;;13.60;75.58;101553.03;4957712;28;20387;-72
2022/05/16 05:43:05;;;;;;;2.90;1.40;;;;;;;13.61;74.40;101567.94;4978917;28;20031;-72
2022/05/16 05:45:31;;;;;;;6.40;2.00;;;;;;;13.56;74.02;101563.91;4975514;28;20433;-72
2022/05/16 05:47:56;;;;;;;3.88;1.58;;;;;;;13.56;73.68;101563.91;4959955;28;20298;-73
2022/05/16 05:50:21;;;;;;;5.57;1.75;;;;;;;13.43;74.48;101549.38;4959541;28;20494;-73
2022/05/16 05:52:47;;;;;;;5.82;1.50;;;;;;;13.35;74.85;101563.41;4974758;28;20066;-73
2022/05/16 05:55:12;;;;;;;5.22;1.70;;;;;;;13.42;74.83;101559.16;4963150;28;20034;-73
2022/05/16 05:57:38;;;;;;;5.60;1.95;;;;;;;13.42;75.84;101548.56;4978343;28;20030;-73
2022/05/16 06:00:06;;;;;;;3.45;1.35;;;;;;;13.40;75.91;101534.63;4976809;28;20034;-73
2022/05/16 06:02:32;;;;;;;6.13;1.92;;;;;;;13.61;75.62;101541.41;4979100;28;20121;-73
2022/05/16 06:04:57;;;;;;;2.83;1.33;;;;;;;13.75;75.45;101519.66;4983171;28;20169;-73
2022/05/16 06:07:23;;;;;;;2.00;1.50;;;;;;;13.68;74.91;101503.53;4952384;28;20521;-73
2022/05/16 06:09:48;;;;;;;3.17;1.33;;;;;;;13.97;75.25;101518.31;4974007;28;20045;-74
2022/05/16 06:12:14;;;;;;;6.35;1.58;;;;;;;14.17;74.28;101514.44;4981896;28;20030;-74
2022/05/16 06:14:43;;;;;;;9.45;1.80;;;;;;;14.52;73.45;101522.44;4976899;28;20035;-74
2022/05/16 06:17:09;;;;;;;5.03;1.48;;;;;;;14.80;73.51;101526.56;4968611;28;20031;-74
2022/05/16 06:19:36;;;;;;;3.78;2.75;;;;;;;14.83;72.91;101520.13;4967083;28;20133;-72
2022/05/16 06:22:02;;;;;;;5.75;1.60;;;;;;;14.76;73.36;101517.28;4999370;28;20336;-73
2022/05/16 06:27:11;;;;;;;6.38;1.73;;;;;;;14.63;73.08;101505.41;4986011;28;20113;-73
2022/05/16 06:29:37;;;;;;;5.53;1.50;;;;;;;14.73;72.16;101536.16;4957658;28;20031;-74
2022/05/16 06:32:02;;;;;;;3.45;1.48;;;;;;;14.75;72.16;101528.88;4978977;28;20132;-72
2022/05/16 06:34:28;;;;;;;4.20;1.38;;;;;;;14.86;72.33;101529.59;5000868;28;20378;-72
2022/05/16 06:36:53;;;;;;;5.43;1.48;;;;;;;14.99;71.62;101535.25;4987312;28;20034;-73
2022/05/16 06:39:18;;;;;;;6.85;1.48;;;;;;;14.87;71.29;101529.41;4989556;28;20054;-72
2022/05/16 06:41:44;;;;;;;3.40;1.50;;;;;;;14.88;71.24;101533.75;4991072;28;20056;-73
2022/05/16 06:44:14;;;;;;;8.65;1.50;;;;;;;15.14;71.27;101540.78;4978302;28;20030;-72
2022/05/16 06:46:39;;;;;;;4.60;1.85;;;;;;;15.15;69.62;101519.34;4988759;28;20022;-73
2022/05/16 06:49:04;;;;;;;3.70;1.80;;;;;;;15.57;70.03;101537.00;4949812;28;20031;-72
2022/05/16 06:51:30;;;;;;;3.88;1.30;;;;;;;15.91;68.28;101520.03;4990376;28;20129;-74
2022/05/16 06:53:55;;;;;;;5.50;1.40;;;;;;;16.30;67.44;101527.28;4990857;28;20117;-72
2022/05/16 06:56:21;;;;;;;6.47;1.55;;;;;;;16.84;65.42;101534.59;4991072;28;20046;-72
2022/05/16 06:58:46;;;;;;;2.08;1.20;;;;;;;16.87;64.67;101518.25;4990484;28;20030;-73
2022/05/16 07:01:12;;;;;;;7.05;2.38;;;;;;;17.00;64.75;101512.34;4963736;28;20026;-73
2022/05/16 07:03:40;;;;;;;5.63;1.48;;;;;;;17.35;63.19;101528.78;4963616;28;20077;-73
2022/05/16 07:06:06;;;;;;;4.20;1.90;;;;;;;17.31;64.65;101508.81;4972981;28;20512;-73
2022/05/16 07:08:33;;;;;;;5.18;1.50;;;;;;;17.56;63.52;101518.28;4991020;28;20026;-73
2022/05/16 07:10:58;;;;;;;5.30;1.77;;;;;;;17.76;62.25;101496.44;4990614;28;20026;-74
2022/05/16 07:13:25;;;;;;;5.78;1.73;;;;;;;18.13;62.27;101510.78;4991053;28;20053;-74
2022/05/16 07:15:51;;;;;;;9.90;1.80;;;;;;;18.59;62.27;101518.56;4982530;28;20365;-73
2022/05/16 07:18:16;;;;;;;3.92;1.42;;;;;;;18.63;59.89;101509.19;5006573;28;20109;-74
2022/05/16 07:20:41;;;;;;;7.65;1.77;;;;;;;18.82;59.51;101503.28;4979274;28;20134;-73
2022/05/16 07:23:08;;;;;;;7.68;1.63;;;;;;;18.24;59.47;101500.44;4983681;28;20149;-73
2022/05/16 07:27:56;;;;;;;5.50;1.85;;;;;;;18.53;59.55;101481.91;4962952;28;20097;-73
2022/05/16 07:28:20;;;;;;;7.10;1.73;;;;;;;18.85;59.28;101484.16;4983321;28;20043;-73
2022/05/16 07:30:45;;;;;;;5.35;1.67;;;;;;;19.51;59.32;101496.50;4980915;28;20053;-74
2022/05/16 07:33:11;;;;;;;5.82;1.83;;;;;;;19.90;57.31;101479.97;4965114;28;20482;-74
2022/05/16 07:35:38;;;;;;;4.88;1.83;;;;;;;19.33;58.88;101505.84;4983144;28;20730;-74
2022/05/16 07:38:04;;;;;;;6.55;1.90;;;;;;;19.68;57.52;101500.56;4973442;28;20113;-74
2022/05/16 07:40:33;;;;;;;8.25;1.95;;;;;;;20.04;56.82;101498.81;4983142;28;20191;-74
2022/05/16 07:42:59;;;;;;;5.40;1.70;;;;;;;19.46;56.30;101498.94;4964116;28;20035;-74
2022/05/16 07:45:26;;;;;;;6.20;2.58;;;;;;;19.63;57.38;101516.41;4953091;28;20031;-73
2022/05/16 07:47:52;;;;;;;4.50;1.90;;;;;;;19.21;58.41;101485.16;4990057;28;20363;-73
2022/05/16 07:50:17;;;;;;;6.93;2.00;;;;;;;19.65;57.84;101498.28;4987343;28;20026;-73
2022/05/16 07:52:47;;;;;;;4.13;1.77;;;;;;;20.13;57.43;101501.13;4986771;28;20030;-73
2022/05/16 07:55:15;;;;;;;4.45;1.70;;;;;;;20.79;57.02;101504.31;4990046;28;20029;-73
2022/05/16 07:57:40;;;;;;;4.28;2.10;;;;;;;20.59;55.64;101498.91;4972910;28;20033;-73
2022/05/16 08:00:06;;;;;;;5.32;1.90;;;;;;;20.02;56.69;101498.16;4989959;28;20030;-73
2022/05/16 08:02:32;;;;;;;6.22;1.80;;;;;;;20.40;57.31;101490.53;4962201;28;20117;-73
2022/05/16 08:04:57;;;;;;;7.70;2.33;;;;;;;20.46;57.08;101511.19;4961939;28;20108;-73
2022/05/16 08:07:22;;;;;;;6.82;2.45;;;;;;;20.25;58.61;101501.41;4972375;28;20053;-73
2022/05/16 08:12:35;;;;;;;8.57;1.70;;;;;;;20.67;56.99;101491.50;4987390;28;20069;-73
2022/05/16 08:15:01;;;;;;;7.18;2.30;;;;;;;20.52;56.49;101491.63;4990089;28;20065;-73
2022/05/16 08:17:28;;;;;;;5.95;2.17;;;;;;;21.09;56.76;101494.09;4960668;28;20045;-73
2022/05/16 08:19:56;;;;;;;3.83;1.70;;;;;;;21.22;55.87;101488.72;4983523;28;20038;-74
2022/05/16 08:22:30;;;;;;;6.55;1.70;;;;;;;20.98;55.98;101465.16;4979460;28;20459;-74
2022/05/16 08:24:56;;;;;;;6.38;2.03;;;;;;;21.63;55.94;101478.88;4982791;28;20018;-73
2022/05/16 08:27:21;;;;;;;7.03;2.33;;;;;;;22.06;55.26;101484.59;4976496;28;20448;-73
2022/05/16 08:29:47;;;;;;;5.50;1.83;;;;;;;22.19;54.60;101484.53;4998287;28;20046;-73
2022/05/16 08:32:14;;;;;;;7.55;2.42;;;;;;;21.88;53.87;101479.03;4975330;28;20274;-73
2022/05/16 08:34:39;;;;;;;7.10;1.98;;;;;;;21.50;54.40;101477.00;4970864;28;20093;-72
2022/05/16 08:39:52;;;;;;;11.20;2.58;;;;;;;21.63;55.74;101486.94;4984215;28;20560;-73
2022/05/16 08:42:22;;;;;;;5.78;1.92;;;;;;;21.71;55.81;101471.41;4981561;28;20493;-72
2022/05/16 08:45:23;;;;;;;7.00;2.03;;;;;;;22.11;54.52;101487.44;4985142;28;20031;-72
2022/05/16 08:48:28;;;;;;;6.22;2.25;;;;;;;22.74;53.62;101483.31;4979855;28;20501;-72
2022/05/16 08:51:04;;;;;;;3.92;1.90;;;;;;;23.04;52.26;101491.66;4983927;28;20431;-72
2022/05/16 08:53:41;;;;;;;8.43;2.10;;;;;;;23.09;52.01;101489.13;4979190;28;20034;-73
2022/05/16 08:56:13;;;;;;;5.30;1.98;;;;;;;23.13;52.54;101479.56;4978261;28;20046;-72
2022/05/16 08:59:10;;;;;;;5.55;1.75;;;;;;;23.18;50.85;101484.28;4979529;28;20397;-72
2022/05/16 09:01:40;;;;;;;5.28;1.73;;;;;;;23.10;52.77;101479.16;4934777;28;20043;-72
2022/05/16 09:04:17;;;;;;;6.55;2.28;;;;;;;23.27;51.67;101474.91;4935798;29;20487;-72
2022/05/16 09:07:04;;;;;;;5.93;2.15;;;;;;;24.21;51.55;101469.44;4927420;29;20035;-72
2022/05/16 09:09:47;;;;;;;4.40;1.92;;;;;;;24.39;49.33;101487.53;4938589;29;20042;-73
2022/05/16 09:12:25;;;;;;;6.70;2.42;;;;;;;23.99;51.43;101466.38;4937527;28;20047;-72
2022/05/16 09:14:59;;;;;;;6.30;3.13;;;;;;;24.11;50.79;101493.44;4919373;28;20042;-73
2022/05/16 09:17:58;;;;;;;6.18;2.35;;;;;;;24.02;51.01;101488.34;4933025;28;20478;-72
2022/05/16 09:20:35;;;;;;;4.88;2.00;;;;;;;23.65;52.03;101492.00;4936736;28;20043;-72
2022/05/16 09:23:05;;;;;;;9.48;2.45;;;;;;;22.92;52.45;101487.97;4941298;28;20043;-72
2022/05/16 09:25:44;;;;;;;10.50;2.10;;;;;;;23.28;52.26;101476.56;4936765;28;20551;-72
2022/05/16 09:31:01;;;;;;;5.00;2.15;;;;;;;23.35;52.70;101503.44;4922463;28;20081;-72
2022/05/16 09:33:29;;;;;;;6.97;2.30;;;;;;;23.52;51.66;101499.16;4933575;28;20209;-72
2022/05/16 09:35:58;;;;;;;8.20;2.33;;;;;;;22.99;52.48;101504.88;4938654;28;20103;-73
2022/05/16 09:38:24;;;;;;;6.53;2.63;;;;;;;23.45;52.81;101497.56;4980669;28;20429;-73
2022/05/16 09:40:58;;;;;;;5.57;2.03;;;;;;;23.17;52.58;101494.25;4988391;28;20026;-72
2022/05/16 09:43:24;;;;;;;8.32;2.35;;;;;;;23.17;52.85;101488.88;4986769;28;20382;-72
2022/05/16 09:45:54;;;;;;;5.15;2.17;;;;;;;23.40;53.54;101499.03;4971005;28;20026;-72
2022/05/16 09:48:22;;;;;;;8.98;1.80;;;;;;;23.31;52.51;101492.28;4981925;28;20029;-72
2022/05/16 09:51:04;;;;;;;6.20;2.00;;;;;;;23.77;52.54;101480.28;4980681;28;20042;-73
2022/05/16 09:53:31;;;;;;;5.05;1.98;;;;;;;23.18;52.47;101497.75;4978075;28;20029;-72
2022/05/16 09:56:03;;;;;;;9.85;2.10;;;;;;;23.10;53.62;101506.09;4983790;28;20034;-71
2022/05/16 09:58:36;;;;;;;4.18;2.10;;;;;;;23.38;53.58;101506.50;4983140;28;20089;-72
2022/05/16 10:01:07;;;;;;;8.85;1.90;;;;;;;23.98;52.30;101513.28;4977735;28;20046;-73
2022/05/16 10:03:36;;;;;;;8.98;2.05;;;;;;;23.81;52.12;101510.34;4984051;28;20461;-73
2022/05/16 10:06:09;;;;;;;7.15;2.20;;;;;;;24.10;51.02;101506.09;4978720;28;20030;-73
2022/05/16 10:08:42;;;;;;;6.75;2.20;;;;;;;24.18;50.19;101497.69;4976267;28;20038;-73
2022/05/16 10:11:28;;;;;;;7.88;2.75;;;;;;;23.78;50.66;101510.78;4979985;28;20032;-73
2022/05/16 10:13:55;;;;;;;4.85;2.00;;;;;;;24.05;50.66;101497.84;4982473;28;20027;-73
2022/05/16 10:16:24;;;;;;;8.38;2.70;;;;;;;25.14;48.52;101489.00;4962200;28;20061;-74
2022/05/16 10:18:54;;;;;;;5.38;2.30;;;;;;;25.63;48.34;101497.75;4988370;28;20105;-72
2022/05/16 10:21:41;;;;;;;7.38;2.53;;;;;;;26.40;47.45;101492.19;4984550;28;20544;-73
2022/05/16 10:24:12;;;;;;;9.20;2.55;;;;;;;26.78;46.38;101493.47;4981366;28;20042;-73
2022/05/16 10:26:41;;;;;;;;;;;;;;;27.13;45.22;101488.94;4974783;28;20569;-71
2022/05/16 10:29:12;;;;;;;8.30;2.15;;;;;;;26.75;45.60;101493.97;4981960;28;19927;-73
2022/05/16 10:35:04;;;;;;;7.25;2.53;;;;;;;27.11;43.52;101493.75;4979097;28;20453;-73
2022/05/16 10:37:31;;;;;;;8.57;1.92;;;;;;;27.59;42.74;101487.81;4971364;28;20065;-73
2022/05/16 10:40:09;;;;;;;9.18;2.28;;;;;;;27.11;43.22;101482.94;4989475;28;20018;-73
2022/05/16 10:42:43;;;;;;;9.02;2.33;;;;;;;27.01;43.69;101476.28;4987239;28;20030;-73
2022/05/16 10:45:17;;;;;;;6.28;2.05;;;;;;;26.52;44.07;101475.88;4988604;28;20081;-73
2022/05/16 10:47:48;;;;;;;4.82;2.10;;;;;;;27.11;44.10;101488.34;4973467;28;20247;-73
2022/05/16 10:50:26;;;;;;;6.32;1.92;;;;;;;27.86;43.52;101489.84;4978713;28;20047;-73
2022/05/16 10:53:20;;;;;;;6.57;2.15;;;;;;;27.62;42.60;101489.19;4989547;28;20022;-73
2022/05/16 10:56:03;;;;;;;6.97;2.15;;;;;;;27.04;43.02;101481.19;4989225;28;20018;-73
2022/05/16 10:58:37;;;;;;;10.40;2.83;;;;;;;26.59;44.34;101487.44;4988393;28;20121;-72
2022/05/16 11:01:20;;;;;;;7.47;2.33;;;;;;;26.61;44.78;101482.59;4986843;28;20089;-72
2022/05/16 11:04:10;;;;;;;10.45;2.53;;;;;;;27.17;44.43;101495.50;4986659;28;20057;-72
2022/05/16 11:07:01;;;;;;;5.32;2.20;;;;;;;28.68;42.28;101486.25;4984494;28;20093;-72
2022/05/16 11:09:38;;;;;;;5.93;1.90;;;;;;;28.51;42.50;101471.97;4982233;28;20493;-73
2022/05/16 11:12:13;;;;;;;3.40;2.10;;;;;;;29.57;40.56;101483.19;4985975;28;20100;-72
2022/05/16 11:14:57;;;;;;;5.35;2.20;;;;;;;29.06;40.59;101472.75;4988866;28;20467;-73
2022/05/16 11:17:34;;;;;;;4.80;1.92;;;;;;;28.86;40.76;101467.97;4986852;28;20471;-73
2022/05/16 11:20:12;;;;;;;9.88;2.38;;;;;;;28.89;41.48;101467.44;4981723;28;20049;-73
2022/05/16 11:22:46;;;;;;;9.02;2.65;;;;;;;29.29;40.61;101467.00;4978541;28;20027;-71
2022/05/16 11:25:17;;;;;;;4.80;1.98;;;;;;;28.78;40.99;101463.78;4976162;28;20494;-73
2022/05/16 11:27:57;;;;;;;7.30;1.90;;;;;;;28.09;41.86;101467.06;4985598;28;20041;-73
2022/05/16 11:30:37;;;;;;;6.97;2.00;;;;;;;27.81;42.25;101470.78;4985273;28;20043;-72
2022/05/16 11:33:14;;;;;;;10.02;2.40;;;;;;;27.97;42.62;101475.34;4984142;28;20042;-72
2022/05/16 11:35:52;;;;;;;6.90;2.13;;;;;;;27.60;43.07;101466.94;4978914;28;20031;-72
2022/05/16 11:38:56;;;;;;;6.10;1.98;;;;;;;27.22;44.03;101473.94;4985512;28;20678;-73
2022/05/16 11:41:31;;;;;;;5.88;2.08;;;;;;;26.36;44.60;101474.78;4987861;28;20482;-73
2022/05/16 11:44:20;;;;;;;12.93;2.35;;;;;;;26.41;45.58;101463.22;4985506;28;20018;-71
2022/05/16 11:47:00;;;;;;;6.95;2.65;;;;;;;25.96;46.13;101461.25;4967377;28;20055;-72
2022/05/16 11:49:49;;;;;;;9.00;2.38;;;;;;;25.96;46.12;101455.84;4978234;28;20471;-73
2022/05/16 11:52:53;;;;;;;8.35;2.33;;;;;;;25.74;45.48;101456.41;4983602;28;20482;-72
2022/05/16 12:01:04;;;;;;;6.25;2.10;;;;;;;25.58;46.58;101439.00;4976895;28;20049;-71
2022/05/16 12:04:05;;;;;;;7.20;2.20;;;;;;;25.41;47.03;101452.44;4987056;28;20027;-72
2022/05/16 12:06:36;;;;;;;10.98;1.92;;;;;;;25.37;46.60;101450.41;4970369;28;20096;-72
2022/05/16 12:09:25;;;;;;;5.60;2.25;;;;;;;25.18;47.47;101457.78;4978025;28;20035;-72
2022/05/16 12:11:55;;;;;;;7.90;2.47;;;;;;;25.23;47.39;101452.50;4983999;28;20034;-72
2022/05/16 12:14:32;;;;;;;10.90;3.20;;;;;;;25.23;48.27;101460.63;4974883;28;20418;-72